Collinsville, Oklahoma
Current Conditions -  °F | °C
As of 2:53 PM on Thursday 23 Oct 2014 (Local Time) from KTUL Reporting Station
Broken Clouds Broken Clouds  
Wind Chill: 66°   Ceiling: 5000
Heat Index: 66°   Visibility: 10mi
Dew Point: 59°   Wind: 8mph
Humidity: 78%   Direction: 180°S
Pressure: 30.09"   Gusts: NA
Location:  36.36°N, 95.84°W
Report Text: KTUL 231953Z 18007KT 10SM FEW015 BKN050 BKN250 19/15 A3009 RMK AO2 SLP184 T01890150
Loading
Personal Weather Stations






























Interactive Weather Map
Tropical Storm Tracking
New forecast layout! Learn more

10-Day Weather Forecast

Advertisements
Track Severe Weather on mobile